Time;durP1;ratioP1;P1;durP2;ratioP2;P2;SDS_P1;SDS_P2;PMS_P1;PMS_P2;Temp;Humidity;BMP_temperature;BMP_pressure;BME280_temperature;BME280_humidity;BME280_pressure;Samples;Min_cycle;Max_cycle;Signal;HPM_P1;HPM_P2
2023/09/05 00:00:45;;;;;;;2.72;1.50;;;21.60;72.00;;;;;;5072294;28;20096;-58
2023/09/05 00:03:11;;;;;;;3.05;1.33;;;21.60;71.90;;;;;;5072640;28;20048;-58
2023/09/05 00:05:36;;;;;;;3.35;1.42;;;21.60;72.00;;;;;;5071136;28;20151;-58
2023/09/05 00:08:02;;;;;;;2.63;1.40;;;21.60;72.00;;;;;;5071779;28;20098;-58
2023/09/05 00:10:28;;;;;;;4.57;1.40;;;21.60;71.90;;;;;;5073307;28;20051;-58
2023/09/05 00:12:53;;;;;;;4.40;1.42;;;21.60;71.90;;;;;;5071028;28;20377;-58
2023/09/05 00:15:19;;;;;;;2.95;1.50;;;21.60;71.90;;;;;;5073297;28;20041;-58
2023/09/05 00:17:45;;;;;;;3.13;1.70;;;21.60;71.90;;;;;;5071748;28;20082;-58
2023/09/05 00:20:15;;;;;;;3.47;1.80;;;21.60;71.90;;;;;;5085969;28;20071;-58
2023/09/05 00:22:41;;;;;;;3.25;1.55;;;21.60;71.90;;;;;;5092484;28;20044;-58
2023/09/05 00:25:07;;;;;;;2.95;1.60;;;21.60;71.80;;;;;;5093299;28;20407;-58
2023/09/05 00:27:34;;;;;;;3.60;1.48;;;21.60;71.90;;;;;;5092847;28;20036;-58
2023/09/05 00:30:02;;;;;;;2.90;1.60;;;21.60;71.80;;;;;;5093241;28;20399;-58
2023/09/05 00:32:28;;;;;;;2.47;1.33;;;21.60;71.80;;;;;;5092837;28;20068;-58
2023/09/05 00:34:54;;;;;;;3.40;1.60;;;21.60;71.80;;;;;;5090069;28;20047;-58
2023/09/05 00:37:22;;;;;;;2.58;1.50;;;21.60;71.80;;;;;;5091532;28;20051;-58
2023/09/05 00:39:48;;;;;;;2.63;1.40;;;21.60;71.80;;;;;;5092873;28;20098;-58
2023/09/05 00:42:15;;;;;;;4.00;1.50;;;21.60;71.80;;;;;;5092594;28;20039;-58
2023/09/05 00:44:41;;;;;;;2.45;1.30;;;21.60;71.70;;;;;;5100514;28;20036;-58
2023/09/05 00:47:07;;;;;;;2.03;1.38;;;21.50;71.70;;;;;;5113438;28;20043;-58
2023/09/05 00:49:38;;;;;;;3.65;1.50;;;21.60;71.70;;;;;;5108645;28;20130;-58
2023/09/05 00:52:05;;;;;;;3.05;1.70;;;21.50;71.60;;;;;;5111958;28;20043;-58
2023/09/05 00:54:30;;;;;;;3.03;1.50;;;21.60;71.70;;;;;;5112510;28;20054;-58
2023/09/05 00:56:56;;;;;;;3.00;1.33;;;21.60;71.70;;;;;;5112325;28;20027;-57
2023/09/05 00:59:21;;;;;;;2.75;1.52;;;21.50;71.60;;;;;;5102407;28;20492;-58
2023/09/05 01:01:48;;;;;;;2.40;1.33;;;21.50;71.60;;;;;;5091891;28;20036;-58
2023/09/05 01:04:13;;;;;;;4.22;1.67;;;21.50;71.60;;;;;;5089993;28;20047;-58
2023/09/05 01:06:57;;;;;;;4.10;1.52;;;21.50;71.60;;;;;;5091462;28;20450;-58
2023/09/05 01:09:22;;;;;;;2.72;1.60;;;21.50;71.60;;;;;;5091698;28;20399;-58
2023/09/05 01:11:48;;;;;;;2.70;1.50;;;21.50;71.60;;;;;;5092597;28;20095;-57
2023/09/05 01:14:14;;;;;;;3.58;1.70;;;21.50;71.60;;;;;;5091759;28;20495;-57
2023/09/05 01:16:43;;;;;;;3.47;1.60;;;21.50;71.60;;;;;;5091551;28;20055;-58
2023/09/05 01:19:12;;;;;;;2.45;1.42;;;21.50;71.60;;;;;;5096689;28;20113;-57
2023/09/05 01:21:40;;;;;;;2.05;1.17;;;21.50;71.50;;;;;;5112434;28;20038;-58
2023/09/05 01:24:22;;;;;;;3.13;1.60;;;21.50;71.50;;;;;;5097755;28;20495;-59
2023/09/05 01:26:51;;;;;;;3.10;1.67;;;21.50;71.50;;;;;;5092357;28;20064;-58
2023/09/05 01:29:29;;;;;;;3.50;1.35;;;21.50;71.50;;;;;;5090829;28;20119;-58
2023/09/05 01:31:57;;;;;;;3.10;1.40;;;21.50;71.50;;;;;;5090655;28;20051;-58
2023/09/05 01:34:25;;;;;;;3.35;1.25;;;21.50;71.50;;;;;;5091258;28;20040;-58
2023/09/05 01:36:54;;;;;;;2.47;1.42;;;21.50;71.50;;;;;;5091367;28;20059;-58
2023/09/05 01:39:19;;;;;;;3.08;1.38;;;21.50;71.40;;;;;;5091836;28;20445;-58
2023/09/05 01:41:45;;;;;;;2.88;1.48;;;21.50;71.40;;;;;;5091756;28;20483;-58
2023/09/05 01:44:11;;;;;;;4.45;1.27;;;21.50;71.40;;;;;;5091214;28;20048;-57
2023/09/05 01:46:37;;;;;;;3.10;1.42;;;21.50;71.40;;;;;;5092082;28;20036;-58
2023/09/05 01:49:03;;;;;;;2.53;1.42;;;21.50;71.40;;;;;;5092314;28;20476;-58
2023/09/05 01:51:28;;;;;;;2.22;1.20;;;21.50;71.40;;;;;;5091486;28;20499;-58
2023/09/05 01:53:54;;;;;;;3.70;1.65;;;21.50;71.40;;;;;;5091930;28;20044;-58
2023/09/05 01:56:19;;;;;;;3.45;1.65;;;21.40;71.30;;;;;;5091851;28;20131;-58
2023/09/05 01:58:45;;;;;;;2.13;1.33;;;21.50;71.30;;;;;;5090797;28;20043;-58
2023/09/05 02:01:10;;;;;;;2.70;1.70;;;21.50;71.30;;;;;;5090649;28;20125;-57
2023/09/05 02:03:36;;;;;;;2.47;1.30;;;21.40;71.30;;;;;;5087834;28;20068;-58
2023/09/05 02:06:01;;;;;;;2.53;1.40;;;21.40;71.30;;;;;;5089941;28;20051;-58
2023/09/05 02:08:27;;;;;;;2.25;1.58;;;21.40;71.30;;;;;;5089755;28;20445;-58
2023/09/05 02:10:53;;;;;;;3.58;1.58;;;21.40;71.30;;;;;;5091665;28;20381;-58
2023/09/05 02:13:21;;;;;;;3.47;1.48;;;21.40;71.30;;;;;;5091501;28;20040;-58
2023/09/05 02:15:47;;;;;;;2.92;1.50;;;21.40;71.20;;;;;;5092509;28;20040;-58
2023/09/05 02:18:15;;;;;;;2.30;1.40;;;21.40;71.30;;;;;;5095469;28;20100;-58
2023/09/05 02:20:41;;;;;;;2.55;1.33;;;21.40;71.20;;;;;;5094003;28;20036;-58
2023/09/05 02:23:07;;;;;;;3.38;1.48;;;21.40;71.20;;;;;;5095327;28;20132;-58
2023/09/05 02:25:32;;;;;;;3.08;1.35;;;21.40;71.20;;;;;;5110615;28;20044;-58
2023/09/05 02:27:58;;;;;;;2.22;1.20;;;21.40;71.20;;;;;;5094705;28;20040;-58
2023/09/05 02:30:25;;;;;;;2.78;1.67;;;21.40;71.20;;;;;;5094286;28;20048;-58
2023/09/05 02:32:54;;;;;;;3.15;1.50;;;21.40;71.20;;;;;;5093394;28;20076;-58
2023/09/05 02:35:25;;;;;;;3.28;1.65;;;21.40;71.20;;;;;;5094892;28;20048;-58
2023/09/05 02:37:55;;;;;;;2.72;1.40;;;21.40;71.20;;;;;;5094645;28;20063;-58
2023/09/05 02:40:21;;;;;;;3.53;1.73;;;21.40;71.20;;;;;;5092498;28;20068;-58
2023/09/05 02:42:46;;;;;;;2.78;1.60;;;21.40;71.20;;;;;;5092303;28;20044;-58
2023/09/05 02:45:12;;;;;;;4.20;1.60;;;21.40;71.20;;;;;;5095094;28;20040;-58
2023/09/05 02:47:38;;;;;;;2.40;1.38;;;21.40;71.20;;;;;;5093305;28;20043;-58
2023/09/05 02:50:04;;;;;;;2.95;1.30;;;21.40;71.20;;;;;;5094676;28;20437;-58
2023/09/05 02:52:33;;;;;;;2.60;1.63;;;21.40;71.10;;;;;;5093890;28;20040;-58
2023/09/05 02:54:59;;;;;;;3.10;1.60;;;21.40;71.10;;;;;;5094087;28;20062;-58
2023/09/05 02:57:24;;;;;;;1.83;1.23;;;21.40;71.20;;;;;;5095261;28;20480;-58
2023/09/05 02:59:53;;;;;;;3.28;1.55;;;21.40;71.10;;;;;;5093696;28;20040;-58
2023/09/05 03:02:22;;;;;;;2.50;1.40;;;21.40;71.20;;;;;;5093778;28;20040;-58
2023/09/05 03:04:51;;;;;;;3.08;1.45;;;21.30;71.70;;;;;;5094844;28;20040;-58
2023/09/05 03:07:17;;;;;;;2.40;1.58;;;21.40;71.10;;;;;;5094421;28;20047;-58
2023/09/05 03:09:43;;;;;;;2.83;1.77;;;21.30;71.10;;;;;;5092761;28;20055;-58
2023/09/05 03:12:11;;;;;;;3.88;1.50;;;21.40;71.10;;;;;;5092667;28;20036;-58
2023/09/05 03:14:37;;;;;;;3.08;1.67;;;21.30;71.10;;;;;;5092780;28;20036;-58
2023/09/05 03:17:04;;;;;;;2.55;1.48;;;21.30;71.00;;;;;;5093523;28;20548;-58
2023/09/05 03:19:30;;;;;;;2.35;1.40;;;21.30;71.00;;;;;;5094306;28;20047;-58
2023/09/05 03:21:56;;;;;;;3.33;1.60;;;21.30;71.00;;;;;;5093248;28;20173;-58
2023/09/05 03:24:25;;;;;;;3.25;1.83;;;21.30;71.00;;;;;;5093556;28;20056;-58
2023/09/05 03:26:50;;;;;;;2.35;1.50;;;21.30;71.00;;;;;;5091736;28;20036;-57
2023/09/05 03:29:16;;;;;;;3.17;1.60;;;21.30;71.00;;;;;;5092211;28;20405;-58
2023/09/05 03:31:41;;;;;;;3.67;1.52;;;21.30;71.00;;;;;;5092287;28;20036;-57
2023/09/05 03:34:10;;;;;;;3.35;1.77;;;21.30;71.00;;;;;;5074901;28;20040;-58
2023/09/05 03:36:36;;;;;;;3.17;1.58;;;21.30;71.00;;;;;;5091343;28;20067;-58
2023/09/05 03:39:02;;;;;;;3.72;1.60;;;21.30;71.00;;;;;;5093658;28;20044;-58
2023/09/05 03:41:28;;;;;;;3.17;1.70;;;21.30;70.90;;;;;;5093760;28;20127;-58
2023/09/05 03:43:54;;;;;;;3.28;1.63;;;21.30;71.00;;;;;;5091285;28;20122;-57
2023/09/05 03:46:20;;;;;;;3.08;1.70;;;21.30;71.00;;;;;;5093924;28;20439;-58
2023/09/05 03:48:46;;;;;;;1.90;1.30;;;21.30;70.90;;;;;;5093725;28;20048;-57
2023/09/05 03:51:11;;;;;;;2.67;1.67;;;21.30;70.90;;;;;;5091258;28;20040;-58
2023/09/05 03:53:37;;;;;;;4.65;1.88;;;21.30;71.00;;;;;;5093565;28;20090;-58
2023/09/05 03:56:03;;;;;;;4.18;1.98;;;21.30;70.90;;;;;;5092935;28;20047;-58
2023/09/05 03:58:28;;;;;;;3.55;1.55;;;21.30;70.90;;;;;;5092728;28;20048;-58
2023/09/05 04:00:57;;;;;;;2.92;1.70;;;21.30;70.90;;;;;;5092862;28;20063;-57
2023/09/05 04:03:22;;;;;;;3.60;1.60;;;21.30;71.00;;;;;;5089589;28;20098;-58
2023/09/05 04:05:48;;;;;;;2.78;1.58;;;21.20;70.90;;;;;;5091904;28;20451;-58
2023/09/05 04:08:13;;;;;;;3.72;1.70;;;21.30;70.90;;;;;;5092752;28;20081;-58
2023/09/05 04:10:39;;;;;;;3.20;1.63;;;21.20;70.90;;;;;;5092354;28;20044;-59
2023/09/05 04:13:04;;;;;;;1.88;1.20;;;21.20;70.90;;;;;;5092847;28;20044;-58
2023/09/05 04:15:31;;;;;;;3.20;1.60;;;21.20;70.90;;;;;;5093460;28;20196;-58
2023/09/05 04:17:57;;;;;;;2.40;1.73;;;21.20;70.90;;;;;;5092284;28;20071;-58
2023/09/05 04:20:22;;;;;;;2.80;1.52;;;21.20;70.90;;;;;;5092155;28;20064;-58
2023/09/05 04:22:48;;;;;;;3.08;1.30;;;21.20;70.90;;;;;;5092755;28;20452;-58
2023/09/05 04:25:14;;;;;;;2.83;1.60;;;21.20;70.90;;;;;;5091905;28;20047;-58
2023/09/05 04:27:40;;;;;;;2.88;1.75;;;21.20;70.90;;;;;;5092588;28;20067;-58
2023/09/05 04:30:09;;;;;;;3.60;2.00;;;21.20;70.80;;;;;;5095759;28;20399;-57
2023/09/05 04:32:35;;;;;;;3.45;1.90;;;21.20;70.80;;;;;;5112319;28;20036;-58
2023/09/05 04:35:01;;;;;;;3.38;1.80;;;21.20;70.80;;;;;;5101466;28;20196;-58
2023/09/05 04:37:27;;;;;;;2.65;1.55;;;21.20;70.80;;;;;;5092869;28;20055;-58
2023/09/05 04:39:53;;;;;;;3.90;1.90;;;21.20;70.80;;;;;;5091661;28;20040;-58
2023/09/05 04:42:19;;;;;;;2.63;1.67;;;21.20;70.80;;;;;;5093053;28;20102;-58
2023/09/05 04:44:44;;;;;;;2.63;1.88;;;21.20;70.80;;;;;;5098993;28;20528;-58
2023/09/05 04:47:23;;;;;;;3.35;1.70;;;21.20;70.80;;;;;;5112266;28;20046;-58
2023/09/05 04:49:56;;;;;;;2.83;1.88;;;21.20;70.80;;;;;;5112850;28;20466;-58
2023/09/05 04:52:22;;;;;;;3.67;2.08;;;21.20;70.90;;;;;;5113513;28;20042;-58
2023/09/05 04:54:47;;;;;;;4.00;1.90;;;21.20;70.90;;;;;;5112284;28;20043;-58
2023/09/05 04:57:14;;;;;;;2.47;1.73;;;21.20;70.80;;;;;;5113148;28;20040;-58
2023/09/05 04:59:40;;;;;;;3.72;1.73;;;21.20;70.80;;;;;;5112946;28;20074;-58
2023/09/05 05:02:06;;;;;;;2.70;1.80;;;21.20;70.80;;;;;;5112479;28;20074;-58
2023/09/05 05:04:32;;;;;;;3.22;1.98;;;21.20;70.80;;;;;;5104368;28;20138;-58
2023/09/05 05:06:57;;;;;;;5.18;1.70;;;21.20;70.80;;;;;;5095459;28;20058;-58
2023/09/05 05:09:23;;;;;;;2.92;1.83;;;21.10;70.80;;;;;;5112543;28;20131;-58
2023/09/05 05:11:49;;;;;;;2.88;1.77;;;21.20;70.80;;;;;;5112666;28;20126;-57
2023/09/05 05:14:14;;;;;;;2.88;1.70;;;21.20;70.80;;;;;;5086009;28;20125;-58
2023/09/05 05:16:43;;;;;;;3.53;1.73;;;21.10;70.80;;;;;;5071522;28;20043;-58
2023/09/05 05:19:09;;;;;;;3.05;1.90;;;21.20;70.80;;;;;;5072228;28;20446;-57
2023/09/05 05:21:35;;;;;;;3.20;1.98;;;21.10;70.70;;;;;;5070632;28;20040;-58
2023/09/05 05:24:01;;;;;;;3.38;1.95;;;21.10;70.70;;;;;;5072043;28;20086;-58
2023/09/05 05:26:28;;;;;;;3.17;1.98;;;21.10;70.70;;;;;;5072405;28;20071;-57
2023/09/05 05:28:54;;;;;;;3.90;1.97;;;21.10;70.70;;;;;;5070949;28;20155;-57
2023/09/05 05:31:19;;;;;;;4.60;2.15;;;21.10;70.70;;;;;;5072081;28;20454;-57
2023/09/05 05:33:45;;;;;;;4.47;2.05;;;21.10;70.60;;;;;;5071832;28;20460;-58
2023/09/05 05:36:10;;;;;;;8.20;2.15;;;21.10;70.50;;;;;;5087912;28;20048;-57
2023/09/05 05:38:36;;;;;;;6.72;2.08;;;21.10;70.50;;;;;;5091675;28;20082;-57
2023/09/05 05:41:02;;;;;;;5.18;2.40;;;21.10;70.50;;;;;;5092708;28;20089;-57
2023/09/05 05:43:29;;;;;;;4.55;2.30;;;21.20;70.60;;;;;;5090326;28;20044;-58
2023/09/05 05:45:55;;;;;;;5.03;2.30;;;21.10;70.50;;;;;;5092263;28;20048;-57
2023/09/05 05:48:20;;;;;;;4.53;2.10;;;21.20;70.60;;;;;;5091412;28;20036;-57
2023/09/05 05:50:46;;;;;;;7.53;2.38;;;21.10;70.50;;;;;;5092158;28;20052;-58
2023/09/05 05:53:12;;;;;;;6.40;2.53;;;21.10;70.50;;;;;;5096156;28;20040;-58
2023/09/05 05:55:38;;;;;;;4.18;2.33;;;21.10;70.50;;;;;;5096172;28;20525;-58
2023/09/05 05:58:03;;;;;;;5.32;2.28;;;21.20;70.50;;;;;;5095380;28;20067;-58
2023/09/05 06:00:29;;;;;;;4.93;2.50;;;21.10;70.60;;;;;;5096394;28;20072;-58
2023/09/05 06:02:55;;;;;;;4.68;2.80;;;21.20;70.70;;;;;;5096163;28;20123;-57
2023/09/05 06:05:22;;;;;;;5.35;2.72;;;21.20;70.70;;;;;;5095225;28;20173;-57
2023/09/05 06:07:48;;;;;;;6.22;2.80;;;21.20;70.80;;;;;;5095857;28;20044;-58
2023/09/05 06:10:13;;;;;;;3.88;2.00;;;21.20;70.90;;;;;;5095835;28;20040;-57
2023/09/05 06:12:39;;;;;;;3.92;2.47;;;21.20;70.90;;;;;;5093090;28;20445;-58
2023/09/05 06:15:05;;;;;;;4.90;2.38;;;21.20;71.00;;;;;;5095210;28;20044;-58
2023/09/05 06:17:30;;;;;;;6.70;2.60;;;21.20;70.90;;;;;;5095155;28;20044;-58
2023/09/05 06:19:56;;;;;;;4.28;2.50;;;21.20;70.90;;;;;;5093092;28;20089;-58
2023/09/05 06:22:21;;;;;;;7.13;2.65;;;21.20;71.00;;;;;;5094393;28;20058;-58
2023/09/05 06:24:47;;;;;;;6.40;2.92;;;21.30;71.60;;;;;;5095454;28;20051;-58
2023/09/05 06:27:13;;;;;;;3.83;2.33;;;21.20;71.10;;;;;;5094638;28;20032;-58
2023/09/05 06:29:38;;;;;;;6.20;2.45;;;21.30;71.10;;;;;;5095597;28;20118;-58
2023/09/05 06:32:04;;;;;;;5.95;2.97;;;21.30;71.10;;;;;;5093375;28;20051;-58
2023/09/05 06:34:31;;;;;;;6.90;2.70;;;21.30;71.10;;;;;;5095529;28;20101;-58
2023/09/05 06:36:57;;;;;;;5.47;2.78;;;21.30;71.00;;;;;;5094073;28;20087;-58
2023/09/05 06:39:22;;;;;;;4.05;2.53;;;21.30;71.10;;;;;;5094464;28;20107;-58
2023/09/05 06:41:48;;;;;;;5.22;2.58;;;21.30;71.10;;;;;;5093661;28;20126;-58
2023/09/05 06:44:15;;;;;;;6.65;2.65;;;21.30;71.10;;;;;;5095589;28;20502;-58
2023/09/05 06:46:41;;;;;;;6.00;2.25;;;21.30;71.20;;;;;;5090195;28;20553;-58
2023/09/05 06:49:06;;;;;;;4.88;2.35;;;21.40;71.20;;;;;;5094974;28;20056;-57
2023/09/05 06:51:35;;;;;;;5.03;2.78;;;21.30;71.20;;;;;;5094559;28;20047;-57
2023/09/05 06:54:00;;;;;;;5.07;2.67;;;21.30;71.20;;;;;;5094427;28;20036;-57
2023/09/05 06:56:26;;;;;;;3.53;2.42;;;21.30;71.30;;;;;;5094521;28;20047;-57
2023/09/05 06:58:52;;;;;;;4.00;2.65;;;21.40;71.30;;;;;;5094775;28;20402;-57
2023/09/05 07:01:18;;;;;;;4.53;2.50;;;21.40;71.30;;;;;;5093514;28;20040;-58
2023/09/05 07:03:43;;;;;;;6.97;2.60;;;21.40;71.30;;;;;;5083368;28;20046;-57
2023/09/05 07:06:09;;;;;;;5.55;2.55;;;21.40;71.30;;;;;;5078518;28;20063;-57
2023/09/05 07:08:34;;;;;;;5.03;2.65;;;21.40;71.40;;;;;;5093918;28;20050;-58
2023/09/05 07:11:00;;;;;;;5.40;2.58;;;21.40;71.40;;;;;;5094324;28;20044;-57
2023/09/05 07:13:26;;;;;;;4.32;2.15;;;21.40;71.40;;;;;;5093987;28;20083;-57
2023/09/05 07:15:51;;;;;;;4.15;2.17;;;21.40;71.30;;;;;;5094148;28;20118;-58
2023/09/05 07:18:17;;;;;;;4.80;2.17;;;21.40;71.30;;;;;;5094995;28;20062;-58
2023/09/05 07:20:43;;;;;;;4.30;2.15;;;21.40;71.30;;;;;;5094230;28;20036;-58
2023/09/05 07:23:09;;;;;;;5.00;2.17;;;21.40;71.20;;;;;;5093927;28;20040;-58
2023/09/05 07:25:43;;;;;;;5.55;2.38;;;21.40;71.20;;;;;;5092819;28;20385;-57
2023/09/05 07:28:10;;;;;;;7.07;2.58;;;21.50;71.30;;;;;;5084821;28;20125;-58
2023/09/05 07:30:35;;;;;;;4.63;2.55;;;21.50;71.30;;;;;;5094005;28;20044;-58
2023/09/05 07:33:01;;;;;;;4.43;2.28;;;21.50;71.40;;;;;;5094346;28;20042;-57
2023/09/05 07:35:27;;;;;;;10.02;2.65;;;21.50;71.40;;;;;;5093981;28;20055;-58
2023/09/05 07:37:52;;;;;;;5.32;2.45;;;21.50;71.50;;;;;;5093858;28;20044;-57
2023/09/05 07:40:18;;;;;;;4.68;2.38;;;21.50;71.60;;;;;;5092833;28;20126;-58
2023/09/05 07:42:44;;;;;;;6.38;2.42;;;21.50;71.60;;;;;;5093453;28;20043;-58
2023/09/05 07:45:10;;;;;;;3.95;2.38;;;21.50;71.60;;;;;;5094169;28;20062;-58
2023/09/05 07:47:35;;;;;;;4.63;2.33;;;21.50;71.50;;;;;;5094028;28;20036;-58
2023/09/05 07:50:01;;;;;;;4.70;2.50;;;21.60;71.60;;;;;;5093300;28;20549;-58
2023/09/05 07:52:27;;;;;;;5.18;2.38;;;21.60;71.60;;;;;;5094201;28;20508;-58
2023/09/05 07:54:52;;;;;;;6.22;2.63;;;21.60;71.50;;;;;;5093583;28;20052;-58
2023/09/05 07:57:18;;;;;;;4.70;2.33;;;21.60;71.50;;;;;;5091655;28;20044;-57
2023/09/05 07:59:44;;;;;;;4.47;2.40;;;21.60;71.60;;;;;;5094716;28;20042;-57
2023/09/05 08:02:10;;;;;;;4.45;2.42;;;21.70;71.60;;;;;;5095072;28;20165;-57
2023/09/05 08:04:39;;;;;;;5.35;2.40;;;21.70;71.60;;;;;;5088707;28;20093;-58
2023/09/05 08:07:08;;;;;;;4.13;2.28;;;21.70;71.60;;;;;;5091839;28;20055;-58
2023/09/05 08:09:43;;;;;;;4.82;2.38;;;21.70;71.60;;;;;;5090717;28;20174;-58
2023/09/05 08:12:08;;;;;;;4.18;2.10;;;21.70;71.60;;;;;;5092590;28;20064;-58
2023/09/05 08:14:34;;;;;;;3.50;1.95;;;21.80;71.60;;;;;;5090170;28;20087;-57
2023/09/05 08:17:00;;;;;;;4.32;2.40;;;21.80;71.60;;;;;;5079803;28;20039;-57
2023/09/05 08:19:28;;;;;;;3.67;2.08;;;21.80;71.60;;;;;;5090666;28;20507;-57
2023/09/05 08:21:54;;;;;;;3.90;2.13;;;21.90;71.60;;;;;;5090232;28;20088;-57
2023/09/05 08:24:19;;;;;;;4.85;2.47;;;21.90;71.60;;;;;;5093223;28;20130;-57
2023/09/05 08:26:45;;;;;;;4.90;2.20;;;21.90;71.60;;;;;;5091927;28;20036;-57
2023/09/05 08:29:14;;;;;;;4.40;2.30;;;21.90;71.50;;;;;;5093396;28;20528;-56
2023/09/05 08:31:40;;;;;;;4.07;2.08;;;21.90;71.50;;;;;;5092328;28;20044;-57
2023/09/05 08:34:05;;;;;;;5.55;2.13;;;21.90;71.40;;;;;;5092833;28;20134;-57
2023/09/05 08:36:31;;;;;;;4.78;1.90;;;22.00;71.40;;;;;;5091670;28;20055;-57
2023/09/05 08:38:57;;;;;;;3.65;2.10;;;22.00;71.40;;;;;;5092112;28;20050;-57
2023/09/05 08:41:23;;;;;;;4.18;2.30;;;21.90;71.40;;;;;;5093233;28;20036;-57
2023/09/05 08:43:48;;;;;;;4.95;2.20;;;22.00;71.40;;;;;;5074499;28;20550;-56
2023/09/05 08:46:14;;;;;;;3.60;2.30;;;22.00;71.40;;;;;;5092306;28;20491;-57
2023/09/05 08:48:40;;;;;;;4.55;2.20;;;22.00;71.40;;;;;;5092147;28;20071;-56
2023/09/05 08:51:05;;;;;;;6.20;2.50;;;22.00;71.40;;;;;;5091766;28;20039;-57
2023/09/05 08:53:35;;;;;;;4.72;2.50;;;22.00;71.40;;;;;;5091887;28;20387;-57
2023/09/05 08:56:01;;;;;;;3.42;1.83;;;22.00;71.50;;;;;;5092638;28;20089;-57
2023/09/05 08:58:26;;;;;;;4.47;2.30;;;22.00;71.50;;;;;;5080319;28;20044;-57
2023/09/05 09:00:52;;;;;;;3.17;2.08;;;22.00;71.50;;;;;;5081917;28;20074;-57
2023/09/05 09:03:17;;;;;;;3.67;2.10;;;22.00;71.50;;;;;;5082781;28;20495;-57
2023/09/05 09:05:46;;;;;;;2.97;2.17;;;22.00;72.10;;;;;;5092062;28;20047;-57
2023/09/05 09:08:12;;;;;;;4.50;2.25;;;22.00;71.50;;;;;;5091525;28;20400;-57
2023/09/05 09:10:38;;;;;;;3.20;1.88;;;22.00;71.50;;;;;;5091992;28;20040;-57
2023/09/05 09:13:17;;;;;;;3.97;1.92;;;22.00;71.50;;;;;;5092443;28;20033;-57
2023/09/05 09:15:43;;;;;;;4.30;2.40;;;22.00;71.50;;;;;;5091572;28;20044;-57
2023/09/05 09:18:12;;;;;;;4.20;2.25;;;22.00;71.50;;;;;;5092557;28;20051;-57
2023/09/05 09:20:42;;;;;;;3.08;1.92;;;22.00;71.50;;;;;;5091030;28;20052;-61
2023/09/05 09:23:11;;;;;;;4.53;2.10;;;22.00;71.50;;;;;;5091090;28;20432;-56
2023/09/05 09:25:46;;;;;;;4.35;2.08;;;22.00;71.50;;;;;;5084007;28;20526;-57
2023/09/05 09:28:28;;;;;;;4.95;2.00;;;22.00;71.70;;;;;;5094557;28;20040;-56
2023/09/05 09:31:05;;;;;;;3.97;2.03;;;22.00;71.90;;;;;;5081143;28;20051;-57
2023/09/05 09:33:31;;;;;;;5.20;2.33;;;22.00;72.10;;;;;;5089118;28;20036;-54
2023/09/05 09:36:06;;;;;;;4.22;2.10;;;22.00;72.10;;;;;;5090664;28;20403;-57
2023/09/05 09:38:32;;;;;;;3.25;2.00;;;22.00;72.20;;;;;;5085759;28;20506;-56
2023/09/05 09:41:00;;;;;;;4.75;2.60;;;22.00;72.20;;;;;;5090203;28;20161;-57
2023/09/05 09:43:30;;;;;;;3.85;1.92;;;22.00;72.20;;;;;;5092300;28;20036;-57
2023/09/05 09:46:00;;;;;;;4.43;2.20;;;22.00;72.20;;;;;;5086385;28;20054;-57
2023/09/05 09:48:29;;;;;;;3.90;1.90;;;22.00;72.20;;;;;;5095075;28;20457;-56
2023/09/05 09:51:00;;;;;;;3.35;2.15;;;22.00;72.20;;;;;;5093190;28;20070;-56
2023/09/05 09:53:38;;;;;;;4.60;2.05;;;22.10;72.30;;;;;;5086476;28;20040;-56
2023/09/05 09:56:08;;;;;;;3.92;1.90;;;22.10;72.30;;;;;;5092080;28;20460;-56
2023/09/05 09:58:34;;;;;;;3.67;1.90;;;22.10;72.30;;;;;;5092883;28;20035;-56
2023/09/05 10:01:00;;;;;;;3.65;1.90;;;22.10;72.30;;;;;;5088391;28;20097;-57
2023/09/05 10:03:26;;;;;;;4.50;2.10;;;22.10;72.30;;;;;;5092732;28;20088;-56
2023/09/05 10:05:52;;;;;;;3.22;1.65;;;22.10;72.90;;;;;;5086526;28;20043;-56
2023/09/05 10:08:17;;;;;;;2.92;1.85;;;22.10;72.30;;;;;;5094986;28;20043;-56
2023/09/05 10:10:43;;;;;;;3.53;1.75;;;22.10;72.30;;;;;;5086400;28;20127;-56
2023/09/05 10:13:09;;;;;;;4.30;1.90;;;22.10;72.30;;;;;;5095284;28;20467;-56
2023/09/05 10:15:41;;;;;;;4.50;2.03;;;22.10;72.30;;;;;;5094066;28;20041;-56
2023/09/05 10:18:09;;;;;;;3.08;1.95;;;22.10;72.30;;;;;;5091860;28;20039;-56
2023/09/05 10:20:37;;;;;;;4.32;1.90;;;22.10;72.30;;;;;;5094779;28;20048;-57
2023/09/05 10:23:06;;;;;;;2.50;1.70;;;22.10;72.20;;;;;;5092515;28;20144;-56
2023/09/05 10:25:33;;;;;;;3.25;1.73;;;22.10;72.10;;;;;;5093522;28;20491;-56
2023/09/05 10:27:59;;;;;;;6.57;2.15;;;22.20;72.10;;;;;;5076743;28;20040;-56
2023/09/05 10:30:24;;;;;;;3.53;1.60;;;22.20;71.80;;;;;;5088903;28;20039;-56
2023/09/05 10:32:50;;;;;;;4.93;2.30;;;22.20;71.60;;;;;;5098235;28;20057;-55
2023/09/05 10:35:19;;;;;;;4.80;2.03;;;22.20;71.60;;;;;;5076685;28;20369;-56
2023/09/05 10:38:07;;;;;;;5.90;2.55;;;22.20;71.60;;;;;;5094729;28;20052;-56
2023/09/05 10:40:34;;;;;;;6.63;2.78;;;22.20;71.90;;;;;;5095145;28;20047;-56
2023/09/05 10:43:01;;;;;;;5.03;2.20;;;22.20;71.90;;;;;;5095361;28;20169;-57
2023/09/05 10:45:27;;;;;;;5.67;2.10;;;22.20;71.90;;;;;;5093205;28;20048;-57
2023/09/05 10:48:00;;;;;;;4.18;2.05;;;22.20;71.80;;;;;;5095192;28;20051;-57
2023/09/05 10:50:25;;;;;;;4.20;2.40;;;22.20;71.80;;;;;;5094132;28;20123;-56
2023/09/05 10:53:10;;;;;;;4.43;2.00;;;22.30;71.90;;;;;;5092855;28;20169;-56
2023/09/05 10:55:44;;;;;;;5.18;2.13;;;22.30;71.90;;;;;;5093670;28;20048;-57
2023/09/05 10:58:47;;;;;;;3.90;2.17;;;22.30;72.00;;;;;;5094296;28;20084;-57
2023/09/05 11:01:31;;;;;;;4.00;2.22;;;22.30;72.00;;;;;;5092046;28;20044;-57
2023/09/05 11:04:03;;;;;;;4.90;2.20;;;22.30;72.00;;;;;;5092677;28;20044;-57
2023/09/05 11:06:32;;;;;;;5.22;1.77;;;22.30;72.00;;;;;;5091363;28;20042;-57
2023/09/05 11:09:01;;;;;;;4.47;2.10;;;22.30;72.00;;;;;;5093016;28;20040;-57
2023/09/05 11:11:27;;;;;;;5.00;1.90;;;22.30;72.00;;;;;;5092159;28;20055;-57
2023/09/05 11:13:54;;;;;;;3.88;1.75;;;22.30;72.10;;;;;;5093204;28;20115;-57
2023/09/05 11:16:20;;;;;;;6.53;1.88;;;22.30;72.20;;;;;;5084398;28;20399;-57
2023/09/05 11:18:47;;;;;;;4.45;1.85;;;22.30;72.20;;;;;;5093661;28;20483;-56
2023/09/05 11:21:22;;;;;;;5.65;2.00;;;22.30;72.30;;;;;;5076767;28;20087;-57
2023/09/05 11:23:52;;;;;;;5.22;2.30;;;22.30;72.40;;;;;;5073951;28;20132;-57
2023/09/05 11:26:17;;;;;;;3.33;1.80;;;22.30;72.40;;;;;;5074374;28;20052;-57
2023/09/05 11:28:43;;;;;;;4.82;2.00;;;22.30;72.30;;;;;;5073257;28;20041;-57
2023/09/05 11:31:10;;;;;;;5.22;1.90;;;22.30;72.30;;;;;;5074014;28;20128;-60
2023/09/05 11:33:37;;;;;;;7.00;1.85;;;22.30;72.30;;;;;;5082390;28;20067;-57
2023/09/05 11:36:04;;;;;;;4.32;1.67;;;22.30;72.30;;;;;;5083418;28;20036;-57
2023/09/05 11:38:32;;;;;;;5.78;1.75;;;22.30;72.30;;;;;;5093698;28;20044;-57
2023/09/05 11:41:05;;;;;;;5.57;1.83;;;22.30;72.30;;;;;;5093691;28;20127;-57
2023/09/05 11:43:33;;;;;;;4.28;1.75;;;22.30;72.30;;;;;;5092458;28;20040;-57
2023/09/05 11:45:59;;;;;;;4.50;1.73;;;22.30;72.30;;;;;;5093553;28;20040;-57
2023/09/05 11:48:25;;;;;;;5.97;1.92;;;22.30;72.20;;;;;;5092280;28;20047;-57
2023/09/05 11:50:51;;;;;;;6.07;1.92;;;22.30;72.30;;;;;;5092201;28;20052;-56
2023/09/05 11:53:18;;;;;;;4.57;1.63;;;22.30;72.30;;;;;;5083473;28;20052;-57
2023/09/05 11:55:44;;;;;;;3.95;1.77;;;22.30;72.90;;;;;;5083060;28;20044;-57
2023/09/05 11:58:10;;;;;;;2.85;1.52;;;22.30;72.30;;;;;;5075491;28;20032;-57
2023/09/05 12:00:41;;;;;;;3.15;1.50;;;22.30;72.30;;;;;;5074976;28;20048;-57
2023/09/05 12:03:10;;;;;;;5.75;1.80;;;22.40;72.20;;;;;;5092854;28;20040;-56
2023/09/05 12:05:36;;;;;;;4.03;1.63;;;22.40;72.30;;;;;;5093056;28;20075;-56
2023/09/05 12:08:04;;;;;;;2.78;1.33;;;22.40;72.30;;;;;;5093215;28;20043;-57
2023/09/05 12:10:51;;;;;;;4.28;1.52;;;22.40;72.30;;;;;;5092012;28;20095;-57
2023/09/05 12:13:17;;;;;;;4.40;1.50;;;22.40;72.30;;;;;;5066344;28;20491;-57
2023/09/05 12:15:43;;;;;;;7.03;1.73;;;22.40;72.40;;;;;;5072825;28;20028;-56
2023/09/05 12:18:09;;;;;;;3.53;1.48;;;22.40;72.40;;;;;;5091064;28;20072;-56
2023/09/05 12:20:35;;;;;;;3.40;1.45;;;22.40;72.40;;;;;;5089269;28;20063;-56
2023/09/05 12:23:01;;;;;;;3.13;1.73;;;22.40;72.40;;;;;;5088418;28;20615;-56
2023/09/05 12:25:28;;;;;;;3.30;1.30;;;22.40;72.40;;;;;;5089221;28;20048;-56
2023/09/05 12:27:55;;;;;;;2.38;1.48;;;22.40;72.40;;;;;;5091223;28;20097;-57
2023/09/05 12:30:26;;;;;;;3.25;1.50;;;22.50;72.50;;;;;;5081665;28;20059;-56
2023/09/05 12:33:04;;;;;;;3.90;1.30;;;22.50;72.50;;;;;;5090871;28;20035;-57
2023/09/05 12:35:32;;;;;;;3.75;1.55;;;22.50;72.40;;;;;;5090463;28;20044;-56
2023/09/05 12:37:59;;;;;;;5.87;1.60;;;22.50;72.40;;;;;;5091274;28;20051;-56
2023/09/05 12:40:25;;;;;;;3.88;1.30;;;22.50;72.40;;;;;;5092320;28;20079;-56
2023/09/05 12:42:51;;;;;;;2.45;1.40;;;22.50;72.40;;;;;;5092024;28;20075;-56
2023/09/05 12:45:19;;;;;;;5.47;1.55;;;22.50;72.40;;;;;;5089086;28;20041;-56
2023/09/05 12:47:49;;;;;;;2.33;1.27;;;22.50;72.40;;;;;;5091671;28;20070;-56